sensor_id;sensor_type;location;lat;lon;timestamp;pressure;altitude;pressure_sealevel;temperature;humidity
43707;BME280;61348;53.392;-6.248;2024-01-30T00:00:50;101622.72;;;2.87;100.00
43707;BME280;61348;53.392;-6.248;2024-01-30T00:03:18;101638.56;;;2.85;100.00
43707;BME280;61348;53.392;-6.248;2024-01-30T00:05:45;101639.66;;;2.84;100.00
43707;BME280;61348;53.392;-6.248;2024-01-30T00:08:13;101622.41;;;2.84;100.00
43707;BME280;61348;53.392;-6.248;2024-01-30T00:10:40;101623.25;;;2.84;100.00
43707;BME280;61348;53.392;-6.248;2024-01-30T00:13:08;101629.78;;;2.83;100.00
43707;BME280;61348;53.392;-6.248;2024-01-30T00:15:35;101629.00;;;2.83;100.00
43707;BME280;61348;53.392;-6.248;2024-01-30T00:18:03;101639.38;;;2.81;100.00
43707;BME280;61348;53.392;-6.248;2024-01-30T00:20:30;101636.09;;;2.79;100.00
43707;BME280;61348;53.392;-6.248;2024-01-30T00:22:58;101653.84;;;2.76;100.00
43707;BME280;61348;53.392;-6.248;2024-01-30T00:25:25;101650.59;;;2.74;100.00
43707;BME280;61348;53.392;-6.248;2024-01-30T00:27:53;101648.69;;;2.75;100.00
43707;BME280;61348;53.392;-6.248;2024-01-30T00:30:20;101646.78;;;2.75;100.00
43707;BME280;61348;53.392;-6.248;2024-01-30T00:32:48;101647.84;;;2.74;100.00
43707;BME280;61348;53.392;-6.248;2024-01-30T00:35:15;101645.38;;;2.73;100.00
43707;BME280;61348;53.392;-6.248;2024-01-30T00:37:43;101650.03;;;2.72;100.00
43707;BME280;61348;53.392;-6.248;2024-01-30T00:40:10;101650.56;;;2.69;100.00
43707;BME280;61348;53.392;-6.248;2024-01-30T00:42:43;101653.31;;;2.69;100.00
43707;BME280;61348;53.392;-6.248;2024-01-30T00:45:13;101657.94;;;2.69;100.00
43707;BME280;61348;53.392;-6.248;2024-01-30T00:47:41;101662.06;;;2.66;100.00
43707;BME280;61348;53.392;-6.248;2024-01-30T00:50:09;101656.59;;;2.66;100.00
43707;BME280;61348;53.392;-6.248;2024-01-30T00:52:36;101657.66;;;2.65;100.00
43707;BME280;61348;53.392;-6.248;2024-01-30T00:55:07;101657.13;;;2.63;100.00
43707;BME280;61348;53.392;-6.248;2024-01-30T00:57:35;101662.03;;;2.61;100.00
43707;BME280;61348;53.392;-6.248;2024-01-30T01:00:03;101662.88;;;2.62;100.00
43707;BME280;61348;53.392;-6.248;2024-01-30T01:02:34;101672.97;;;2.61;100.00
43707;BME280;61348;53.392;-6.248;2024-01-30T01:05:02;101675.16;;;2.59;100.00
43707;BME280;61348;53.392;-6.248;2024-01-30T01:07:30;101664.78;;;2.56;100.00
43707;BME280;61348;53.392;-6.248;2024-01-30T01:09:58;101669.94;;;2.53;100.00
43707;BME280;61348;53.392;-6.248;2024-01-30T01:12:25;101674.59;;;2.52;100.00
43707;BME280;61348;53.392;-6.248;2024-01-30T01:14:52;101675.69;;;2.51;100.00
43707;BME280;61348;53.392;-6.248;2024-01-30T01:17:20;101675.13;;;2.49;100.00
43707;BME280;61348;53.392;-6.248;2024-01-30T01:19:47;101675.94;;;2.50;100.00
43707;BME280;61348;53.392;-6.248;2024-01-30T01:22:16;101681.69;;;2.48;100.00
43707;BME280;61348;53.392;-6.248;2024-01-30T01:24:44;101678.97;;;2.48;100.00
43707;BME280;61348;53.392;-6.248;2024-01-30T01:27:12;101689.06;;;2.47;100.00
43707;BME280;61348;53.392;-6.248;2024-01-30T01:29:39;101699.16;;;2.47;100.00
43707;BME280;61348;53.392;-6.248;2024-01-30T01:32:06;101687.41;;;2.46;100.00
43707;BME280;61348;53.392;-6.248;2024-01-30T01:34:34;101698.63;;;2.45;100.00
43707;BME280;61348;53.392;-6.248;2024-01-30T01:37:01;101700.53;;;2.44;100.00
43707;BME280;61348;53.392;-6.248;2024-01-30T01:39:29;101697.25;;;2.42;100.00
43707;BME280;61348;53.392;-6.248;2024-01-30T01:41:56;101702.72;;;2.42;100.00
43707;BME280;61348;53.392;-6.248;2024-01-30T01:44:24;101700.22;;;2.41;100.00
43707;BME280;61348;53.392;-6.248;2024-01-30T01:46:52;101710.63;;;2.39;100.00
43707;BME280;61348;53.392;-6.248;2024-01-30T01:49:27;101714.44;;;2.38;100.00
43707;BME280;61348;53.392;-6.248;2024-01-30T01:51:56;101706.25;;;2.38;100.00
43707;BME280;61348;53.392;-6.248;2024-01-30T01:54:27;101708.41;;;2.36;100.00
43707;BME280;61348;53.392;-6.248;2024-01-30T01:56:56;101722.06;;;2.36;100.00
43707;BME280;61348;53.392;-6.248;2024-01-30T01:59:23;101716.59;;;2.36;100.00
43707;BME280;61348;53.392;-6.248;2024-01-30T02:01:52;101716.06;;;2.34;100.00
43707;BME280;61348;53.392;-6.248;2024-01-30T02:04:20;101716.59;;;2.31;100.00
43707;BME280;61348;53.392;-6.248;2024-01-30T02:06:48;101720.44;;;2.30;100.00
43707;BME280;61348;53.392;-6.248;2024-01-30T02:09:15;101717.69;;;2.30;100.00
43707;BME280;61348;53.392;-6.248;2024-01-30T02:11:43;101720.97;;;2.27;100.00
43707;BME280;61348;53.392;-6.248;2024-01-30T02:14:10;101723.94;;;2.25;100.00
43707;BME280;61348;53.392;-6.248;2024-01-30T02:16:38;101732.97;;;2.26;100.00
43707;BME280;61348;53.392;-6.248;2024-01-30T02:19:05;101726.94;;;2.24;100.00
43707;BME280;61348;53.392;-6.248;2024-01-30T02:21:34;101731.59;;;2.23;100.00
43707;BME280;61348;53.392;-6.248;2024-01-30T02:24:02;101733.78;;;2.21;100.00
43707;BME280;61348;53.392;-6.248;2024-01-30T02:26:30;101738.41;;;2.21;100.00
43707;BME280;61348;53.392;-6.248;2024-01-30T02:28:58;101747.66;;;2.20;100.00
43707;BME280;61348;53.392;-6.248;2024-01-30T02:31:25;101745.50;;;2.17;100.00
43707;BME280;61348;53.392;-6.248;2024-01-30T02:33:53;101746.56;;;2.16;100.00
43707;BME280;61348;53.392;-6.248;2024-01-30T02:36:21;101747.94;;;2.13;100.00
43707;BME280;61348;53.392;-6.248;2024-01-30T02:38:48;101748.22;;;2.12;100.00
43707;BME280;61348;53.392;-6.248;2024-01-30T02:41:16;101752.25;;;2.09;100.00
43707;BME280;61348;53.392;-6.248;2024-01-30T02:43:43;101746.78;;;2.09;100.00
43707;BME280;61348;53.392;-6.248;2024-01-30T02:46:11;101755.28;;;2.08;100.00
43707;BME280;61348;53.392;-6.248;2024-01-30T02:48:38;101763.75;;;2.06;100.00
43707;BME280;61348;53.392;-6.248;2024-01-30T02:51:06;101758.53;;;2.05;100.00
43707;BME280;61348;53.392;-6.248;2024-01-30T02:53:33;101754.16;;;2.04;100.00
43707;BME280;61348;53.392;-6.248;2024-01-30T02:56:02;101753.34;;;2.03;100.00
43707;BME280;61348;53.392;-6.248;2024-01-30T02:58:30;101753.03;;;2.00;100.00
43707;BME280;61348;53.392;-6.248;2024-01-30T03:00:57;101764.22;;;1.98;100.00
43707;BME280;61348;53.392;-6.248;2024-01-30T03:03:25;101760.66;;;1.98;100.00
43707;BME280;61348;53.392;-6.248;2024-01-30T03:05:53;101764.47;;;1.97;100.00
43707;BME280;61348;53.392;-6.248;2024-01-30T03:08:21;101763.66;;;1.96;100.00
43707;BME280;61348;53.392;-6.248;2024-01-30T03:10:49;101769.09;;;1.96;100.00
43707;BME280;61348;53.392;-6.248;2024-01-30T03:13:16;101771.84;;;1.96;100.00
43707;BME280;61348;53.392;-6.248;2024-01-30T03:15:44;101771.28;;;1.94;100.00
43707;BME280;61348;53.392;-6.248;2024-01-30T03:18:11;101774.56;;;1.96;100.00
43707;BME280;61348;53.392;-6.248;2024-01-30T03:20:39;101770.75;;;1.97;100.00
43707;BME280;61348;53.392;-6.248;2024-01-30T03:23:06;101775.41;;;1.97;100.00
43707;BME280;61348;53.392;-6.248;2024-01-30T03:25:34;101774.03;;;1.94;100.00
43707;BME280;61348;53.392;-6.248;2024-01-30T03:28:01;101780.59;;;1.93;100.00
43707;BME280;61348;53.392;-6.248;2024-01-30T03:30:29;101790.69;;;1.93;100.00
43707;BME280;61348;53.392;-6.248;2024-01-30T03:32:56;101803.78;;;1.91;100.00
43707;BME280;61348;53.392;-6.248;2024-01-30T03:35:23;101802.13;;;1.90;100.00
43707;BME280;61348;53.392;-6.248;2024-01-30T03:37:51;101811.38;;;1.89;100.00
43707;BME280;61348;53.392;-6.248;2024-01-30T03:40:18;101804.03;;;1.89;100.00
43707;BME280;61348;53.392;-6.248;2024-01-30T03:42:46;101799.91;;;1.87;100.00
43707;BME280;61348;53.392;-6.248;2024-01-30T03:45:13;101811.09;;;1.85;100.00
43707;BME280;61348;53.392;-6.248;2024-01-30T03:47:43;101804.00;;;1.84;100.00
43707;BME280;61348;53.392;-6.248;2024-01-30T03:50:11;101806.72;;;1.84;100.00
43707;BME280;61348;53.392;-6.248;2024-01-30T03:52:38;101804.00;;;1.84;100.00
43707;BME280;61348;53.392;-6.248;2024-01-30T03:55:06;101807.00;;;1.82;100.00
43707;BME280;61348;53.392;-6.248;2024-01-30T03:57:34;101799.88;;;1.81;100.00
43707;BME280;61348;53.392;-6.248;2024-01-30T04:00:01;101812.69;;;1.81;100.00
43707;BME280;61348;53.392;-6.248;2024-01-30T04:02:30;101820.06;;;1.80;100.00
43707;BME280;61348;53.392;-6.248;2024-01-30T04:04:58;101820.88;;;1.81;100.00
43707;BME280;61348;53.392;-6.248;2024-01-30T04:07:26;101825.22;;;1.77;100.00
43707;BME280;61348;53.392;-6.248;2024-01-30T04:09:53;101829.88;;;1.76;100.00
43707;BME280;61348;53.392;-6.248;2024-01-30T04:12:27;101839.97;;;1.76;100.00
43707;BME280;61348;53.392;-6.248;2024-01-30T04:14:54;101835.84;;;1.73;100.00
43707;BME280;61348;53.392;-6.248;2024-01-30T04:17:22;101843.47;;;1.71;100.00
43707;BME280;61348;53.392;-6.248;2024-01-30T04:19:49;101836.34;;;1.70;100.00
43707;BME280;61348;53.392;-6.248;2024-01-30T04:22:17;101841.00;;;1.70;100.00
43707;BME280;61348;53.392;-6.248;2024-01-30T04:24:44;101853.25;;;1.67;100.00
43707;BME280;61348;53.392;-6.248;2024-01-30T04:27:12;101857.63;;;1.68;100.00
43707;BME280;61348;53.392;-6.248;2024-01-30T04:29:39;101856.81;;;1.68;100.00
43707;BME280;61348;53.392;-6.248;2024-01-30T04:32:07;101862.53;;;1.66;100.00
43707;BME280;61348;53.392;-6.248;2024-01-30T04:34:36;101860.88;;;1.65;100.00
43707;BME280;61348;53.392;-6.248;2024-01-30T04:37:04;101863.63;;;1.65;100.00
43707;BME280;61348;53.392;-6.248;2024-01-30T04:39:33;101881.66;;;1.66;100.00
43707;BME280;61348;53.392;-6.248;2024-01-30T04:42:00;101875.09;;;1.67;100.00
43707;BME280;61348;53.392;-6.248;2024-01-30T04:44:28;101887.63;;;1.63;100.00
43707;BME280;61348;53.392;-6.248;2024-01-30T04:46:55;101889.19;;;1.59;100.00
43707;BME280;61348;53.392;-6.248;2024-01-30T04:49:26;101887.25;;;1.55;100.00
43707;BME280;61348;53.392;-6.248;2024-01-30T04:51:53;101890.75;;;1.50;100.00
43707;BME280;61348;53.392;-6.248;2024-01-30T04:54:21;101893.50;;;1.50;100.00
43707;BME280;61348;53.392;-6.248;2024-01-30T04:56:48;101891.00;;;1.49;100.00
43707;BME280;61348;53.392;-6.248;2024-01-30T04:59:16;101900.28;;;1.48;100.00
43707;BME280;61348;53.392;-6.248;2024-01-30T05:01:43;101902.19;;;1.47;100.00
43707;BME280;61348;53.392;-6.248;2024-01-30T05:04:11;101896.41;;;1.44;100.00
43707;BME280;61348;53.392;-6.248;2024-01-30T05:06:43;101898.84;;;1.40;100.00
43707;BME280;61348;53.392;-6.248;2024-01-30T05:09:10;101905.88;;;1.36;100.00
43707;BME280;61348;53.392;-6.248;2024-01-30T05:11:39;101909.38;;;1.32;100.00
43707;BME280;61348;53.392;-6.248;2024-01-30T05:14:07;101914.19;;;1.24;100.00
43707;BME280;61348;53.392;-6.248;2024-01-30T05:16:35;101916.84;;;1.19;100.00
43707;BME280;61348;53.392;-6.248;2024-01-30T05:19:03;101910.28;;;1.15;100.00
43707;BME280;61348;53.392;-6.248;2024-01-30T05:21:30;101918.13;;;1.12;100.00
43707;BME280;61348;53.392;-6.248;2024-01-30T05:23:58;101929.31;;;1.10;100.00
43707;BME280;61348;53.392;-6.248;2024-01-30T05:26:25;101922.19;;;1.09;100.00
43707;BME280;61348;53.392;-6.248;2024-01-30T05:28:53;101932.28;;;1.09;100.00
43707;BME280;61348;53.392;-6.248;2024-01-30T05:31:21;101931.16;;;1.05;100.00
43707;BME280;61348;53.392;-6.248;2024-01-30T05:33:48;101932.22;;;1.04;100.00
43707;BME280;61348;53.392;-6.248;2024-01-30T05:36:16;101937.09;;;1.02;100.00
43707;BME280;61348;53.392;-6.248;2024-01-30T05:38:44;101944.22;;;1.03;100.00
43707;BME280;61348;53.392;-6.248;2024-01-30T05:41:11;101955.13;;;1.03;100.00
43707;BME280;61348;53.392;-6.248;2024-01-30T05:43:38;101949.41;;;1.04;100.00
43707;BME280;61348;53.392;-6.248;2024-01-30T05:46:06;101945.00;;;1.03;100.00
43707;BME280;61348;53.392;-6.248;2024-01-30T05:48:34;101950.47;;;1.03;100.00
43707;BME280;61348;53.392;-6.248;2024-01-30T05:51:02;101957.25;;;1.01;100.00
43707;BME280;61348;53.392;-6.248;2024-01-30T05:53:31;101943.06;;;0.99;100.00
43707;BME280;61348;53.392;-6.248;2024-01-30T05:56:01;101965.13;;;0.97;100.00
43707;BME280;61348;53.392;-6.248;2024-01-30T05:58:28;101956.13;;;0.97;100.00
43707;BME280;61348;53.392;-6.248;2024-01-30T06:00:57;101962.63;;;0.96;100.00
43707;BME280;61348;53.392;-6.248;2024-01-30T06:03:25;101967.53;;;0.94;100.00
43707;BME280;61348;53.392;-6.248;2024-01-30T06:05:52;101984.38;;;0.91;100.00
43707;BME280;61348;53.392;-6.248;2024-01-30T06:08:20;101982.97;;;0.88;100.00
43707;BME280;61348;53.392;-6.248;2024-01-30T06:10:47;101987.03;;;0.86;100.00
43707;BME280;61348;53.392;-6.248;2024-01-30T06:13:15;101987.53;;;0.83;100.00
43707;BME280;61348;53.392;-6.248;2024-01-30T06:15:42;101987.53;;;0.83;100.00
43707;BME280;61348;53.392;-6.248;2024-01-30T06:18:10;102000.59;;;0.81;100.00
43707;BME280;61348;53.392;-6.248;2024-01-30T06:20:39;101997.31;;;0.79;100.00
43707;BME280;61348;53.392;-6.248;2024-01-30T06:23:07;102002.19;;;0.77;100.00
43707;BME280;61348;53.392;-6.248;2024-01-30T06:25:34;101998.84;;;0.75;100.00
43707;BME280;61348;53.392;-6.248;2024-01-30T06:28:13;102008.63;;;0.71;100.00
43707;BME280;61348;53.392;-6.248;2024-01-30T06:30:41;101996.31;;;0.68;100.00
43707;BME280;61348;53.392;-6.248;2024-01-30T06:33:11;102005.56;;;0.67;100.00
43707;BME280;61348;53.392;-6.248;2024-01-30T06:35:40;102015.06;;;0.65;100.00
43707;BME280;61348;53.392;-6.248;2024-01-30T06:38:11;102015.88;;;0.65;100.00
43707;BME280;61348;53.392;-6.248;2024-01-30T06:40:39;102025.97;;;0.65;100.00
43707;BME280;61348;53.392;-6.248;2024-01-30T06:43:06;102023.22;;;0.65;100.00
43707;BME280;61348;53.392;-6.248;2024-01-30T06:45:35;102026.78;;;0.65;100.00
43707;BME280;61348;53.392;-6.248;2024-01-30T06:48:03;102029.78;;;0.64;100.00
43707;BME280;61348;53.392;-6.248;2024-01-30T06:50:30;102037.94;;;0.64;100.00
43707;BME280;61348;53.392;-6.248;2024-01-30T06:52:58;102031.06;;;0.61;100.00
43707;BME280;61348;53.392;-6.248;2024-01-30T06:55:25;102020.44;;;0.59;100.00
43707;BME280;61348;53.392;-6.248;2024-01-30T06:57:53;102033.00;;;0.60;100.00
43707;BME280;61348;53.392;-6.248;2024-01-30T07:00:20;102038.69;;;0.59;100.00
43707;BME280;61348;53.392;-6.248;2024-01-30T07:02:48;102036.78;;;0.59;100.00
43707;BME280;61348;53.392;-6.248;2024-01-30T07:05:16;102045.53;;;0.61;100.00
43707;BME280;61348;53.392;-6.248;2024-01-30T07:07:44;102056.44;;;0.61;100.00
43707;BME280;61348;53.392;-6.248;2024-01-30T07:10:12;102063.53;;;0.63;100.00
43707;BME280;61348;53.392;-6.248;2024-01-30T07:12:40;102069.22;;;0.61;100.00
43707;BME280;61348;53.392;-6.248;2024-01-30T07:15:07;102073.25;;;0.58;100.00
43707;BME280;61348;53.392;-6.248;2024-01-30T07:17:36;102069.97;;;0.56;100.00
43707;BME280;61348;53.392;-6.248;2024-01-30T07:20:05;102071.06;;;0.55;100.00
43707;BME280;61348;53.392;-6.248;2024-01-30T07:22:33;102084.69;;;0.55;100.00
43707;BME280;61348;53.392;-6.248;2024-01-30T07:25:01;102075.91;;;0.53;100.00
43707;BME280;61348;53.392;-6.248;2024-01-30T07:27:28;102078.06;;;0.51;100.00
43707;BME280;61348;53.392;-6.248;2024-01-30T07:29:56;102072.03;;;0.49;100.00
43707;BME280;61348;53.392;-6.248;2024-01-30T07:32:23;102065.19;;;0.47;100.00
43707;BME280;61348;53.392;-6.248;2024-01-30T07:34:51;102072.53;;;0.46;100.00
43707;BME280;61348;53.392;-6.248;2024-01-30T07:37:33;102081.75;;;0.45;100.00
43707;BME280;61348;53.392;-6.248;2024-01-30T07:40:01;102083.69;;;0.45;100.00
43707;BME280;61348;53.392;-6.248;2024-01-30T07:42:29;102097.53;;;0.43;100.00
43707;BME280;61348;53.392;-6.248;2024-01-30T07:44:57;102098.63;;;0.42;100.00
43707;BME280;61348;53.392;-6.248;2024-01-30T07:47:24;102101.34;;;0.42;100.00
43707;BME280;61348;53.392;-6.248;2024-01-30T07:49:52;102109.25;;;0.44;100.00
43707;BME280;61348;53.392;-6.248;2024-01-30T07:52:21;102101.34;;;0.42;100.00
43707;BME280;61348;53.392;-6.248;2024-01-30T07:54:50;102116.84;;;0.42;100.00
43707;BME280;61348;53.392;-6.248;2024-01-30T07:57:17;102121.47;;;0.41;100.00
43707;BME280;61348;53.392;-6.248;2024-01-30T07:59:45;102116.59;;;0.43;100.00
43707;BME280;61348;53.392;-6.248;2024-01-30T08:02:12;102127.75;;;0.42;100.00
43707;BME280;61348;53.392;-6.248;2024-01-30T08:04:40;102124.19;;;0.41;100.00
43707;BME280;61348;53.392;-6.248;2024-01-30T08:07:08;102116.03;;;0.41;100.00
43707;BME280;61348;53.392;-6.248;2024-01-30T08:09:36;102123.13;;;0.42;100.00
43707;BME280;61348;53.392;-6.248;2024-01-30T08:12:04;102134.03;;;0.42;100.00
43707;BME280;61348;53.392;-6.248;2024-01-30T08:14:31;102138.66;;;0.42;100.00
43707;BME280;61348;53.392;-6.248;2024-01-30T08:16:59;102134.84;;;0.43;100.00
43707;BME280;61348;53.392;-6.248;2024-01-30T08:19:26;102138.41;;;0.43;100.00
43707;BME280;61348;53.392;-6.248;2024-01-30T08:21:54;102153.69;;;0.44;100.00
43707;BME280;61348;53.392;-6.248;2024-01-30T08:24:22;102155.31;;;0.45;100.00
43707;BME280;61348;53.392;-6.248;2024-01-30T08:26:50;102149.88;;;0.45;100.00
43707;BME280;61348;53.392;-6.248;2024-01-30T08:29:17;102162.44;;;0.46;100.00
43707;BME280;61348;53.392;-6.248;2024-01-30T08:31:45;102159.69;;;0.46;100.00
43707;BME280;61348;53.392;-6.248;2024-01-30T08:34:13;102167.03;;;0.46;100.00
43707;BME280;61348;53.392;-6.248;2024-01-30T08:36:41;102173.31;;;0.46;100.00
43707;BME280;61348;53.392;-6.248;2024-01-30T08:39:08;102173.31;;;0.46;100.00
43707;BME280;61348;53.392;-6.248;2024-01-30T08:41:36;102170.34;;;0.48;100.00
43707;BME280;61348;53.392;-6.248;2024-01-30T08:44:03;102182.91;;;0.49;100.00
43707;BME280;61348;53.392;-6.248;2024-01-30T08:46:31;102178.03;;;0.51;100.00
43707;BME280;61348;53.392;-6.248;2024-01-30T08:48:59;102181.13;;;0.54;100.00
43707;BME280;61348;53.392;-6.248;2024-01-30T08:51:26;102181.69;;;0.56;100.00
43707;BME280;61348;53.392;-6.248;2024-01-30T08:53:54;102179.53;;;0.58;100.00
43707;BME280;61348;53.392;-6.248;2024-01-30T08:56:21;102173.03;;;0.59;100.00
43707;BME280;61348;53.392;-6.248;2024-01-30T08:58:49;102182.63;;;0.62;100.00
43707;BME280;61348;53.392;-6.248;2024-01-30T09:01:16;102184.03;;;0.65;100.00
43707;BME280;61348;53.392;-6.248;2024-01-30T09:03:44;102183.53;;;0.68;100.00
43707;BME280;61348;53.392;-6.248;2024-01-30T09:06:13;102185.78;;;0.71;100.00
43707;BME280;61348;53.392;-6.248;2024-01-30T09:08:41;102197.03;;;0.74;100.00
43707;BME280;61348;53.392;-6.248;2024-01-30T09:11:12;102203.28;;;0.75;100.00
43707;BME280;61348;53.392;-6.248;2024-01-30T09:13:41;102200.31;;;0.76;100.00
43707;BME280;61348;53.392;-6.248;2024-01-30T09:16:08;102203.38;;;0.80;100.00
43707;BME280;61348;53.392;-6.248;2024-01-30T09:18:35;102204.78;;;0.82;100.00
43707;BME280;61348;53.392;-6.248;2024-01-30T09:21:03;102213.31;;;0.86;100.00
43707;BME280;61348;53.392;-6.248;2024-01-30T09:23:31;102222.06;;;0.88;100.00
43707;BME280;61348;53.392;-6.248;2024-01-30T09:25:58;102226.19;;;0.90;100.00
43707;BME280;61348;53.392;-6.248;2024-01-30T09:28:26;102236.38;;;0.95;100.00
43707;BME280;61348;53.392;-6.248;2024-01-30T09:30:54;102245.16;;;0.97;100.00
43707;BME280;61348;53.392;-6.248;2024-01-30T09:33:21;102239.19;;;1.00;100.00
43707;BME280;61348;53.392;-6.248;2024-01-30T09:35:49;102252.94;;;1.05;100.00
43707;BME280;61348;53.392;-6.248;2024-01-30T09:38:16;102244.00;;;1.09;100.00
43707;BME280;61348;53.392;-6.248;2024-01-30T09:40:44;102250.88;;;1.12;100.00
43707;BME280;61348;53.392;-6.248;2024-01-30T09:43:22;102253.09;;;1.15;100.00
43707;BME280;61348;53.392;-6.248;2024-01-30T09:45:53;102250.47;;;1.20;100.00
43707;BME280;61348;53.392;-6.248;2024-01-30T09:48:21;102240.13;;;1.22;100.00
43707;BME280;61348;53.392;-6.248;2024-01-30T09:50:50;102254.94;;;1.26;100.00
43707;BME280;61348;53.392;-6.248;2024-01-30T09:53:19;102256.91;;;1.31;100.00
43707;BME280;61348;53.392;-6.248;2024-01-30T09:55:47;102253.69;;;1.34;100.00
43707;BME280;61348;53.392;-6.248;2024-01-30T09:58:14;102261.41;;;1.37;100.00
43707;BME280;61348;53.392;-6.248;2024-01-30T10:00:42;102261.75;;;1.40;100.00
43707;BME280;61348;53.392;-6.248;2024-01-30T10:03:10;102257.44;;;1.44;100.00
43707;BME280;61348;53.392;-6.248;2024-01-30T10:05:40;102265.13;;;1.47;100.00
43707;BME280;61348;53.392;-6.248;2024-01-30T10:08:07;102269.81;;;1.52;100.00
43707;BME280;61348;53.392;-6.248;2024-01-30T10:10:35;102273.97;;;1.54;100.00
43707;BME280;61348;53.392;-6.248;2024-01-30T10:13:04;102274.31;;;1.58;100.00
43707;BME280;61348;53.392;-6.248;2024-01-30T10:15:33;102263.72;;;1.61;100.00
43707;BME280;61348;53.392;-6.248;2024-01-30T10:18:02;102267.59;;;1.65;100.00
43707;BME280;61348;53.392;-6.248;2024-01-30T10:20:30;102260.59;;;1.69;100.00
43707;BME280;61348;53.392;-6.248;2024-01-30T10:22:58;102265.50;;;1.72;100.00
43707;BME280;61348;53.392;-6.248;2024-01-30T10:25:26;102266.69;;;1.76;100.00
43707;BME280;61348;53.392;-6.248;2024-01-30T10:27:54;102267.03;;;1.80;100.00
43707;BME280;61348;53.392;-6.248;2024-01-30T10:30:25;102270.06;;;1.83;100.00
43707;BME280;61348;53.392;-6.248;2024-01-30T10:32:53;102270.13;;;1.89;100.00
43707;BME280;61348;53.392;-6.248;2024-01-30T10:35:20;102288.53;;;1.93;100.00
43707;BME280;61348;53.392;-6.248;2024-01-30T10:37:48;102285.03;;;1.98;100.00
43707;BME280;61348;53.392;-6.248;2024-01-30T10:40:16;102280.72;;;2.02;100.00
43707;BME280;61348;53.392;-6.248;2024-01-30T10:42:45;102280.78;;;2.07;100.00
43707;BME280;61348;53.392;-6.248;2024-01-30T10:45:13;102265.56;;;2.11;100.00
43707;BME280;61348;53.392;-6.248;2024-01-30T10:47:50;102268.34;;;2.16;100.00
43707;BME280;61348;53.392;-6.248;2024-01-30T10:50:18;102282.66;;;2.23;100.00
43707;BME280;61348;53.392;-6.248;2024-01-30T10:52:47;102284.66;;;2.27;100.00
43707;BME280;61348;53.392;-6.248;2024-01-30T10:55:15;102284.44;;;2.34;100.00
43707;BME280;61348;53.392;-6.248;2024-01-30T10:57:43;102289.16;;;2.38;100.00
43707;BME280;61348;53.392;-6.248;2024-01-30T11:00:13;102287.31;;;2.44;100.00
43707;BME280;61348;53.392;-6.248;2024-01-30T11:02:45;102297.81;;;2.52;100.00
43707;BME280;61348;53.392;-6.248;2024-01-30T11:05:13;102287.75;;;2.58;100.00
43707;BME280;61348;53.392;-6.248;2024-01-30T11:07:43;102307.78;;;2.63;100.00
43707;BME280;61348;53.392;-6.248;2024-01-30T11:10:11;102317.16;;;2.67;100.00
43707;BME280;61348;53.392;-6.248;2024-01-30T11:12:42;102311.75;;;2.72;100.00
43707;BME280;61348;53.392;-6.248;2024-01-30T11:15:16;102310.97;;;2.77;100.00
43707;BME280;61348;53.392;-6.248;2024-01-30T11:20:16;102325.59;;;2.87;100.00
43707;BME280;61348;53.392;-6.248;2024-01-30T11:22:49;102318.28;;;2.93;100.00
43707;BME280;61348;53.392;-6.248;2024-01-30T11:25:20;102321.91;;;2.98;100.00
43707;BME280;61348;53.392;-6.248;2024-01-30T11:27:52;102318.66;;;3.01;100.00
43707;BME280;61348;53.392;-6.248;2024-01-30T11:30:41;102317.59;;;3.07;100.00
43707;BME280;61348;53.392;-6.248;2024-01-30T11:33:11;102322.06;;;3.14;100.00
43707;BME280;61348;53.392;-6.248;2024-01-30T11:35:43;102323.22;;;3.18;100.00
43707;BME280;61348;53.392;-6.248;2024-01-30T11:38:14;102317.19;;;3.21;100.00
43707;BME280;61348;53.392;-6.248;2024-01-30T11:40:43;102315.06;;;3.23;100.00
43707;BME280;61348;53.392;-6.248;2024-01-30T11:43:13;102312.38;;;3.28;100.00
43707;BME280;61348;53.392;-6.248;2024-01-30T11:45:40;102324.72;;;3.30;100.00
43707;BME280;61348;53.392;-6.248;2024-01-30T11:48:08;102317.88;;;3.33;100.00
43707;BME280;61348;53.392;-6.248;2024-01-30T11:50:38;102329.41;;;3.35;100.00
43707;BME280;61348;53.392;-6.248;2024-01-30T11:53:07;102322.34;;;3.39;100.00
43707;BME280;61348;53.392;-6.248;2024-01-30T11:55:35;102320.16;;;3.41;100.00
43707;BME280;61348;53.392;-6.248;2024-01-30T11:58:05;102316.31;;;3.42;100.00
43707;BME280;61348;53.392;-6.248;2024-01-30T12:00:33;102313.34;;;3.43;100.00
43707;BME280;61348;53.392;-6.248;2024-01-30T12:03:02;102313.06;;;3.45;100.00
43707;BME280;61348;53.392;-6.248;2024-01-30T12:05:31;102304.03;;;3.44;100.00
43707;BME280;61348;53.392;-6.248;2024-01-30T12:07:59;102305.97;;;3.44;100.00
43707;BME280;61348;53.392;-6.248;2024-01-30T12:10:28;102299.38;;;3.45;100.00
43707;BME280;61348;53.392;-6.248;2024-01-30T12:12:57;102290.59;;;3.43;100.00
43707;BME280;61348;53.392;-6.248;2024-01-30T12:15:25;102292.28;;;3.44;100.00
43707;BME280;61348;53.392;-6.248;2024-01-30T12:18:04;102286.84;;;3.49;100.00
43707;BME280;61348;53.392;-6.248;2024-01-30T12:20:32;102288.78;;;3.53;100.00
43707;BME280;61348;53.392;-6.248;2024-01-30T12:22:59;102286.88;;;3.54;100.00
43707;BME280;61348;53.392;-6.248;2024-01-30T12:25:27;102272.66;;;3.57;100.00
43707;BME280;61348;53.392;-6.248;2024-01-30T12:27:54;102268.59;;;3.59;100.00
43707;BME280;61348;53.392;-6.248;2024-01-30T12:30:24;102266.13;;;3.63;100.00
43707;BME280;61348;53.392;-6.248;2024-01-30T12:32:51;102270.00;;;3.67;100.00
43707;BME280;61348;53.392;-6.248;2024-01-30T12:35:20;102264.56;;;3.72;100.00
43707;BME280;61348;53.392;-6.248;2024-01-30T12:37:49;102266.25;;;3.78;100.00
43707;BME280;61348;53.392;-6.248;2024-01-30T12:40:17;102265.19;;;3.84;100.00
43707;BME280;61348;53.392;-6.248;2024-01-30T12:42:47;102263.63;;;3.93;100.00
43707;BME280;61348;53.392;-6.248;2024-01-30T12:45:17;102255.47;;;4.03;100.00
43707;BME280;61348;53.392;-6.248;2024-01-30T12:47:50;102261.00;;;4.13;100.00